Time;durP1;ratioP1;P1;durP2;ratioP2;P2;SDS_P1;SDS_P2;PMS_P1;PMS_P2;Temp;Humidity;BMP_temperature;BMP_pressure;BME280_temperature;BME280_humidity;BME280_pressure;Samples;Min_cycle;Max_cycle;Signal;HPM_P1;HPM_P2
2022/04/16 00:01:57;;;;;;;9.32;6.45;;;;;;;14.31;63.06;101758.25;5056724;28;20033;-89
2022/04/16 00:04:22;;;;;;;8.20;5.80;;;;;;;14.28;63.23;101761.94;5055395;28;20025;-90
2022/04/16 00:06:48;;;;;;;7.72;6.13;;;;;;;14.21;63.21;101744.75;5054761;28;20390;-88
2022/04/16 00:09:13;;;;;;;9.85;6.95;;;;;;;14.16;63.35;101741.56;5054496;28;20066;-88
2022/04/16 00:11:38;;;;;;;8.20;6.50;;;;;;;14.20;63.87;101750.16;5054888;28;20103;-88
2022/04/16 00:14:04;;;;;;;6.85;6.13;;;;;;;14.15;63.64;101750.41;5054692;28;20057;-89
2022/04/16 00:16:31;;;;;;;7.80;6.15;;;;;;;14.23;63.65;101758.72;5055093;28;20074;-89
2022/04/16 00:18:56;;;;;;;8.95;6.47;;;;;;;14.14;63.53;101750.50;5054528;28;21212;-88
2022/04/16 00:21:22;;;;;;;7.45;5.50;;;;;;;14.15;63.95;101749.56;5054614;28;20108;-88
2022/04/16 00:23:48;;;;;;;7.65;6.65;;;;;;;14.08;63.72;101751.75;5053491;28;20024;-88
2022/04/16 00:26:14;;;;;;;6.90;6.00;;;;;;;14.06;63.80;101751.00;5053254;28;20055;-88
2022/04/16 00:28:39;;;;;;;9.35;6.70;;;;;;;14.07;64.07;101757.97;5054582;28;20039;-89
2022/04/16 00:31:05;;;;;;;12.25;7.10;;;;;;;14.11;64.04;101764.75;5054645;28;20109;-90
2022/04/16 00:33:33;;;;;;;8.85;7.00;;;;;;;14.09;63.92;101759.56;5054717;28;20116;-89
2022/04/16 00:36:00;;;;;;;9.85;6.70;;;;;;;14.03;63.84;101756.47;5054718;28;20033;-89
2022/04/16 00:38:26;;;;;;;8.85;6.82;;;;;;;14.02;64.01;101758.25;5054823;28;20541;-89
2022/04/16 00:40:52;;;;;;;8.55;7.03;;;;;;;14.00;64.25;101754.88;5054614;28;20033;-88
2022/04/16 00:43:22;;;;;;;8.20;6.80;;;;;;;14.04;64.03;101761.66;5054579;28;20070;-88
2022/04/16 00:45:48;;;;;;;10.18;6.88;;;;;;;13.97;64.34;101754.19;5055415;28;20116;-88
2022/04/16 00:48:13;;;;;;;10.45;7.10;;;;;;;13.93;64.44;101750.03;5055072;28;20052;-89
2022/04/16 00:50:40;;;;;;;5.95;5.25;;;;;;;13.96;64.05;101756.00;5054856;28;20135;-89
2022/04/16 00:53:06;;;;;;;10.05;6.30;;;;;;;13.99;64.18;101765.50;5055670;28;20024;-89
2022/04/16 00:55:36;;;;;;;7.53;6.50;;;;;;;13.97;64.23;101767.41;5055471;28;20029;-88
2022/04/16 00:58:01;;;;;;;6.95;5.75;;;;;;;13.89;63.97;101757.28;5055098;28;20146;-88
2022/04/16 01:00:27;;;;;;;7.53;5.43;;;;;;;13.84;64.49;101762.00;5054377;28;20032;-88
2022/04/16 01:02:52;;;;;;;7.53;5.38;;;;;;;13.81;64.56;101762.19;5055158;28;20091;-88
2022/04/16 01:05:19;;;;;;;8.05;5.78;;;;;;;13.76;64.17;101765.09;5054442;28;20033;-88
2022/04/16 01:07:58;;;;;;;6.80;5.75;;;;;;;13.76;64.72;101764.25;5053688;28;20032;-89
2022/04/16 01:10:29;;;;;;;9.35;6.18;;;;;;;13.69;64.34;101774.31;5052218;28;20024;-89
2022/04/16 01:12:58;;;;;;;8.00;6.15;;;;;;;13.62;64.48;101762.44;5053678;28;20017;-89
2022/04/16 01:15:24;;;;;;;9.25;6.75;;;;;;;13.69;64.71;101780.44;5053401;28;20409;-89
2022/04/16 01:17:51;;;;;;;8.43;6.13;;;;;;;13.69;65.19;101779.59;5053810;28;20036;-89
2022/04/16 01:20:18;;;;;;;10.65;7.38;;;;;;;13.73;65.22;101775.84;5053497;28;20035;-89
2022/04/16 01:22:45;;;;;;;7.75;5.75;;;;;;;13.73;65.37;101770.56;5052223;28;20025;-88
2022/04/16 01:25:11;;;;;;;7.70;6.32;;;;;;;13.79;65.09;101764.91;5053251;28;20029;-89
2022/04/16 01:27:43;;;;;;;8.00;6.63;;;;;;;13.69;65.38;101743.50;5053081;28;20060;-89
2022/04/16 01:30:12;;;;;;;7.43;5.80;;;;;;;13.84;65.48;101760.22;5051931;28;20032;-89
2022/04/16 01:32:38;;;;;;;7.63;5.85;;;;;;;13.79;65.57;101754.34;5053134;28;20032;-89
2022/04/16 01:35:05;;;;;;;10.05;6.93;;;;;;;13.69;65.11;101746.13;5052566;28;20025;-89
2022/04/16 01:37:33;;;;;;;7.85;6.50;;;;;;;13.63;65.41;101745.66;5052980;28;20025;-89
2022/04/16 01:40:00;;;;;;;6.57;5.85;;;;;;;13.64;65.62;101744.72;5052996;28;20497;-89
2022/04/16 01:42:25;;;;;;;8.63;5.97;;;;;;;13.66;65.44;101753.38;5052311;28;20070;-89
2022/04/16 01:44:52;;;;;;;8.77;6.00;;;;;;;13.69;65.07;101761.13;5053153;28;20029;-89
2022/04/16 01:47:18;;;;;;;7.85;5.28;;;;;;;13.65;64.85;101760.47;5052014;28;20056;-89
2022/04/16 01:49:43;;;;;;;6.45;5.00;;;;;;;13.54;65.23;101760.22;5053485;28;20103;-89
2022/04/16 01:52:09;;;;;;;7.25;5.35;;;;;;;13.52;65.22;101764.75;5052896;28;20060;-89
2022/04/16 01:54:35;;;;;;;7.75;5.65;;;;;;;13.47;64.61;101774.75;5052729;28;20154;-89
2022/04/16 01:57:00;;;;;;;7.88;5.68;;;;;;;13.48;64.56;101784.34;5052915;28;20036;-89
2022/04/16 01:59:25;;;;;;;8.57;6.15;;;;;;;13.40;64.83;101778.66;5052949;28;20112;-89
2022/04/16 02:01:51;;;;;;;9.25;5.97;;;;;;;13.37;65.23;101789.38;5052890;28;20063;-88
2022/04/16 02:04:17;;;;;;;8.38;5.38;;;;;;;13.36;65.47;101793.81;5053456;28;20053;-89
2022/04/16 02:06:42;;;;;;;8.68;5.78;;;;;;;13.35;65.38;101802.69;5052941;28;20028;-89
2022/04/16 02:09:07;;;;;;;7.82;6.28;;;;;;;13.32;66.12;101792.28;5052842;28;20021;-88
2022/04/16 02:11:33;;;;;;;9.60;5.68;;;;;;;13.35;65.77;101802.69;5052551;28;20027;-89
2022/04/16 02:13:58;;;;;;;10.57;6.50;;;;;;;13.31;66.38;101787.97;5051267;28;20056;-89
2022/04/16 02:16:24;;;;;;;8.85;6.20;;;;;;;13.15;66.65;101800.28;5053004;28;20382;-89
2022/04/16 02:18:51;;;;;;;9.68;6.47;;;;;;;13.23;66.42;101779.59;5052442;28;20056;-87
2022/04/16 02:21:17;;;;;;;6.22;5.28;;;;;;;13.35;66.29;101800.06;5051866;28;20406;-89
2022/04/16 02:23:43;;;;;;;9.68;6.97;;;;;;;13.39;65.90;101792.78;5052636;28;20092;-89
2022/04/16 02:26:09;;;;;;;7.70;5.75;;;;;;;13.41;65.70;101791.78;5052513;28;20136;-89
2022/04/16 02:28:35;;;;;;;7.00;5.88;;;;;;;13.45;65.74;101793.31;5052296;28;20025;-88
2022/04/16 02:31:00;;;;;;;6.95;5.53;;;;;;;13.39;65.82;101792.78;5052211;28;20410;-89
2022/04/16 02:33:27;;;;;;;8.00;6.03;;;;;;;13.36;65.62;101796.47;5051277;28;20016;-88
2022/04/16 02:35:52;;;;;;;8.88;6.78;;;;;;;13.30;65.59;101786.25;5052276;28;20079;-89
2022/04/16 02:38:18;;;;;;;10.57;8.15;;;;;;;13.35;65.46;101797.41;5051216;28;20450;-89
2022/04/16 02:40:43;;;;;;;12.95;9.38;;;;;;;13.32;65.81;101784.38;5051120;28;20031;-89
2022/04/16 02:43:08;;;;;;;13.18;10.18;;;;;;;13.33;65.59;101782.59;5052494;28;20148;-89
2022/04/16 02:48:18;;;;;;;12.73;11.23;;;;;;;13.21;65.16;101773.56;5056242;28;20514;-89
2022/04/16 02:50:44;;;;;;;16.52;11.48;;;;;;;13.16;65.30;101780.91;5055963;28;20036;-89
2022/04/16 02:53:10;;;;;;;20.45;15.45;;;;;;;13.10;65.71;101790.84;5056362;28;20025;-88
2022/04/16 02:55:35;;;;;;;22.00;14.93;;;;;;;13.06;66.12;101794.59;5056157;28;20509;-88
2022/04/16 02:58:00;;;;;;;21.63;15.68;;;;;;;12.98;66.12;101778.38;5056120;28;20052;-88
2022/04/16 03:00:26;;;;;;;23.38;14.75;;;;;;;13.05;66.99;101795.56;5056203;28;20387;-89
2022/04/16 03:02:52;;;;;;;19.88;15.15;;;;;;;13.02;66.60;101779.88;5056137;28;20025;-88
2022/04/16 03:05:18;;;;;;;20.75;15.52;;;;;;;13.17;66.76;101804.56;5054422;28;20394;-88
2022/04/16 03:07:44;;;;;;;23.67;15.63;;;;;;;13.16;67.61;101809.91;5056068;28;20021;-89
2022/04/16 03:10:10;;;;;;;21.48;17.42;;;;;;;13.01;68.49;101804.56;5056144;28;20401;-89
2022/04/16 03:12:43;;;;;;;24.08;17.67;;;;;;;13.10;68.76;101804.03;5055984;28;20028;-89
2022/04/16 03:17:54;;;;;;;20.88;16.38;;;;;;;13.26;68.81;101795.25;5055633;28;20506;-90
2022/04/16 03:20:20;;;;;;;20.42;15.30;;;;;;;13.27;68.58;101800.44;5055717;28;20025;-90
2022/04/16 03:22:45;;;;;;;20.48;15.98;;;;;;;13.29;68.76;101801.25;5055852;28;20029;-90
2022/04/16 03:25:11;;;;;;;19.13;15.10;;;;;;;13.16;68.54;101780.91;5055712;28;20048;-90
2022/04/16 03:27:37;;;;;;;17.83;14.32;;;;;;;13.24;68.19;101800.63;5055523;28;20493;-90
2022/04/16 03:30:07;;;;;;;19.20;14.18;;;;;;;13.21;68.18;101800.81;5055462;28;20395;-90
2022/04/16 03:32:36;;;;;;;15.52;12.63;;;;;;;13.06;68.27;101786.69;5054579;28;20021;-90
2022/04/16 03:35:02;;;;;;;16.65;13.38;;;;;;;13.05;67.70;101795.56;5050427;28;20490;-90
2022/04/16 03:37:27;;;;;;;18.17;14.32;;;;;;;12.97;68.02;101800.38;5055312;28;20029;-90
2022/04/16 03:39:53;;;;;;;20.20;13.90;;;;;;;13.20;67.12;101793.81;5055370;28;20029;-90
2022/04/16 03:42:19;;;;;;;16.42;11.88;;;;;;;13.17;66.76;101790.50;5055402;28;20092;-90
2022/04/16 03:44:45;;;;;;;16.77;11.85;;;;;;;13.25;66.83;101801.47;5055224;28;20103;-90
2022/04/16 03:47:11;;;;;;;11.70;10.30;;;;;;;13.22;66.53;101797.22;5055398;28;20016;-90
2022/04/16 03:49:39;;;;;;;13.43;10.88;;;;;;;13.24;66.68;101789.22;5055276;28;20028;-90
2022/04/16 03:52:05;;;;;;;14.15;10.82;;;;;;;13.17;66.16;101782.59;5054944;28;20025;-90
2022/04/16 04:00:01;;;;;;;13.70;10.80;;;;;;;13.15;65.90;101795.00;5055065;28;20048;-89
2022/04/16 04:02:30;;;;;;;15.95;11.27;;;;;;;13.12;65.77;101793.41;5055001;28;20105;-89
2022/04/16 04:04:57;;;;;;;13.65;10.52;;;;;;;13.06;65.88;101791.97;5053352;28;20024;-90
2022/04/16 04:07:23;;;;;;;15.20;10.95;;;;;;;12.90;65.44;101785.84;5054614;28;20025;-89
2022/04/16 04:09:48;;;;;;;13.82;10.30;;;;;;;12.78;65.43;101800.56;5054608;28;20031;-90
2022/04/16 04:12:15;;;;;;;16.35;11.18;;;;;;;12.83;65.83;101805.56;5054859;28;20437;-90
2022/04/16 04:14:42;;;;;;;16.13;11.18;;;;;;;12.83;65.95;101805.56;5055615;28;20033;-90
2022/04/16 04:17:08;;;;;;;16.08;12.35;;;;;;;12.85;66.46;101809.81;5055946;28;20025;-90
2022/04/16 04:19:35;;;;;;;16.88;11.38;;;;;;;12.81;66.57;101794.25;5058942;28;20368;-91
2022/04/16 04:22:05;;;;;;;15.85;11.77;;;;;;;12.87;66.62;101807.97;5060153;28;20115;-90
2022/04/16 04:24:30;;;;;;;18.80;11.30;;;;;;;12.99;66.60;101816.13;5059782;28;20032;-90
2022/04/16 04:26:59;;;;;;;21.45;14.50;;;;;;;13.05;66.75;101819.28;5054427;28;20017;-90
2022/04/16 04:29:26;;;;;;;20.25;14.15;;;;;;;13.01;66.84;101812.47;5054292;28;20517;-90
2022/04/16 04:31:52;;;;;;;20.88;15.38;;;;;;;12.95;66.99;101793.50;5054334;28;20032;-89
2022/04/16 04:34:17;;;;;;;21.10;16.58;;;;;;;13.07;67.06;101804.22;5054466;28;20033;-90
2022/04/16 04:36:43;;;;;;;20.40;15.30;;;;;;;13.23;67.21;101814.75;5054223;28;20021;-89
2022/04/16 04:39:08;;;;;;;23.35;15.18;;;;;;;13.30;67.00;101815.28;5054356;28;20025;-90
2022/04/16 04:41:34;;;;;;;22.40;15.77;;;;;;;13.31;66.80;101817.00;5054195;28;20025;-90
2022/04/16 04:43:59;;;;;;;21.27;15.55;;;;;;;13.39;66.75;101824.44;5054099;28;20021;-90
2022/04/16 04:46:25;;;;;;;21.05;15.52;;;;;;;13.39;67.12;101820.03;5052907;28;20056;-90
2022/04/16 04:48:50;;;;;;;19.63;13.55;;;;;;;13.44;66.93;101817.97;5053356;28;20036;-90
2022/04/16 04:51:15;;;;;;;21.00;14.93;;;;;;;13.52;66.81;101824.59;5053868;28;20071;-90
2022/04/16 04:53:41;;;;;;;18.48;13.48;;;;;;;13.54;66.83;101823.56;5053884;28;20066;-90
2022/04/16 04:56:06;;;;;;;16.95;12.73;;;;;;;13.58;66.92;101825.09;5053945;28;20155;-90
2022/04/16 04:58:31;;;;;;;16.60;12.93;;;;;;;13.58;66.74;101814.53;5053802;28;20025;-90
2022/04/16 05:00:57;;;;;;;20.98;14.32;;;;;;;13.60;66.72;101814.44;5053983;28;20390;-90
2022/04/16 05:03:23;;;;;;;19.15;13.70;;;;;;;13.64;66.52;101814.16;5054200;28;20032;-90
2022/04/16 05:05:48;;;;;;;16.83;13.10;;;;;;;13.65;66.14;101810.59;5053904;28;20025;-89
2022/04/16 05:08:13;;;;;;;19.48;13.20;;;;;;;13.54;66.32;101810.38;5053372;28;20059;-90
2022/04/16 05:10:39;;;;;;;18.85;14.15;;;;;;;13.56;65.86;101815.56;5053680;28;20021;-89
2022/04/16 05:13:04;;;;;;;19.00;13.48;;;;;;;13.47;65.75;101815.16;5054154;28;20382;-90
2022/04/16 05:15:30;;;;;;;17.15;12.20;;;;;;;13.41;65.69;101818.16;5054116;28;20486;-89
2022/04/16 05:17:55;;;;;;;18.40;13.30;;;;;;;13.29;65.40;101809.16;5053074;28;20497;-90
2022/04/16 05:20:20;;;;;;;20.73;13.30;;;;;;;13.26;65.60;101826.91;5052736;28;20025;-89
2022/04/16 05:22:47;;;;;;;18.75;14.00;;;;;;;13.19;66.10;101830.81;5052810;28;20025;-90
2022/04/16 05:25:12;;;;;;;18.80;13.43;;;;;;;13.07;66.07;101822.69;5052682;28;20040;-90
2022/04/16 05:27:37;;;;;;;23.27;15.73;;;;;;;13.08;66.45;101821.72;5053398;28;20399;-89
2022/04/16 05:30:06;;;;;;;21.40;14.15;;;;;;;13.15;66.66;101845.13;5053153;28;20025;-90
2022/04/16 05:32:42;;;;;;;16.15;12.43;;;;;;;13.19;66.66;101844.88;5053217;28;20024;-89
2022/04/16 05:35:11;;;;;;;17.90;12.27;;;;;;;13.22;66.70;101842.06;5053132;28;20033;-89
2022/04/16 05:37:36;;;;;;;21.13;13.32;;;;;;;13.35;67.00;101854.56;5053039;28;20432;-89
2022/04/16 05:40:03;;;;;;;16.55;12.00;;;;;;;13.44;66.88;101854.91;5052903;28;20024;-90
2022/04/16 05:42:29;;;;;;;17.75;11.65;;;;;;;13.52;67.04;101856.28;5051629;28;20123;-90
2022/04/16 05:45:00;;;;;;;16.98;11.52;;;;;;;13.49;66.91;101841.47;5051729;28;20144;-90
2022/04/16 05:47:26;;;;;;;17.08;11.75;;;;;;;13.57;67.04;101848.94;5052932;28;20021;-90
2022/04/16 05:49:51;;;;;;;15.98;11.60;;;;;;;13.70;66.83;101863.13;5052870;28;20036;-88
2022/04/16 05:52:18;;;;;;;16.73;12.45;;;;;;;13.82;66.96;101864.19;5053042;28;20021;-89
2022/04/16 05:54:43;;;;;;;16.88;12.77;;;;;;;13.87;66.86;101868.28;5053466;28;20082;-89
2022/04/16 05:57:09;;;;;;;19.17;13.07;;;;;;;13.96;66.13;101866.03;5053196;28;20104;-89
2022/04/16 05:59:35;;;;;;;16.60;12.32;;;;;;;14.07;66.55;101868.88;5053326;28;20029;-90
2022/04/16 06:02:00;;;;;;;17.52;12.95;;;;;;;14.16;66.48;101870.13;5053409;28;20055;-90
2022/04/16 06:04:26;;;;;;;17.75;12.20;;;;;;;14.16;66.20;101860.44;5053167;28;20120;-89
2022/04/16 06:06:51;;;;;;;17.98;12.68;;;;;;;14.25;66.24;101856.38;5054298;28;20467;-89
2022/04/16 06:09:16;;;;;;;16.15;12.18;;;;;;;14.33;66.24;101866.47;5052703;28;20463;-89
2022/04/16 06:11:42;;;;;;;19.15;13.43;;;;;;;14.28;65.83;101849.13;5052069;28;20044;-89
2022/04/16 06:14:08;;;;;;;20.15;13.60;;;;;;;14.45;66.11;101873.66;5053028;28;20021;-90
2022/04/16 06:16:33;;;;;;;22.45;15.77;;;;;;;14.48;65.87;101873.47;5052955;28;20522;-89
2022/04/16 06:18:59;;;;;;;22.65;15.05;;;;;;;14.57;65.64;101872.94;5052773;28;20067;-89
2022/04/16 06:21:24;;;;;;;23.23;15.10;;;;;;;14.62;65.73;101865.56;5052556;28;20053;-89
2022/04/16 06:23:51;;;;;;;23.60;15.93;;;;;;;14.75;65.77;101870.09;5052656;28;20068;-89
2022/04/16 06:26:16;;;;;;;20.80;14.63;;;;;;;14.83;65.93;101867.81;5052737;28;20053;-89
2022/04/16 06:28:42;;;;;;;23.05;16.25;;;;;;;14.90;65.81;101865.66;5052296;28;20510;-89
2022/04/16 06:31:07;;;;;;;23.23;15.70;;;;;;;15.02;65.43;101862.22;5051382;28;20021;-91
2022/04/16 06:33:32;;;;;;;21.58;15.48;;;;;;;15.13;65.19;101858.91;5052449;28;20025;-89
2022/04/16 06:35:58;;;;;;;22.88;16.77;;;;;;;15.30;64.83;101866.59;5052309;28;20032;-90
2022/04/16 06:38:23;;;;;;;27.60;17.33;;;;;;;15.45;64.86;101870.91;5052407;28;20043;-90
2022/04/16 06:40:48;;;;;;;21.30;15.35;;;;;;;15.59;64.58;101866.50;5052462;28;20028;-89
2022/04/16 06:43:14;;;;;;;22.17;14.90;;;;;;;15.75;64.22;101866.38;5052534;28;20044;-89
2022/04/16 06:45:39;;;;;;;20.80;15.52;;;;;;;15.88;64.30;101871.69;5052566;28;20036;-89
2022/04/16 06:48:05;;;;;;;18.98;13.98;;;;;;;16.03;64.33;101873.31;5052009;28;20028;-90
2022/04/16 06:50:30;;;;;;;21.65;15.80;;;;;;;16.14;63.88;101868.13;5052269;28;20112;-90
2022/04/16 06:52:56;;;;;;;24.63;18.00;;;;;;;16.38;62.78;101878.00;5052425;28;20104;-90
2022/04/16 06:55:21;;;;;;;25.45;19.38;;;;;;;16.48;62.14;101873.75;5052323;28;20463;-90
2022/04/16 06:57:46;;;;;;;29.80;19.83;;;;;;;16.60;60.81;101872.88;5050967;28;20040;-90
2022/04/16 07:00:13;;;;;;;27.75;19.17;;;;;;;16.82;60.47;101866.09;5052303;28;20017;-90
2022/04/16 07:02:39;;;;;;;24.52;18.15;;;;;;;17.04;60.23;101871.59;5052936;28;20021;-90
2022/04/16 07:05:05;;;;;;;26.70;18.42;;;;;;;17.15;59.00;101867.31;5053061;28;20025;-90
2022/04/16 07:07:31;;;;;;;24.33;18.08;;;;;;;17.63;59.13;101870.81;5052292;28;20485;-90
2022/04/16 07:09:57;;;;;;;26.23;17.80;;;;;;;17.85;57.86;101853.25;5052112;28;20021;-90
2022/04/16 07:12:22;;;;;;;31.00;19.00;;;;;;;17.98;56.26;101864.66;5052268;28;20024;-91
2022/04/16 07:14:48;;;;;;;25.60;17.73;;;;;;;18.05;56.19;101854.44;5051505;28;20045;-88
2022/04/16 07:17:13;;;;;;;23.52;17.05;;;;;;;18.28;55.71;101859.78;5052585;28;20025;-89
2022/04/16 07:19:39;;;;;;;24.08;17.70;;;;;;;18.28;55.21;101854.47;5052222;28;20108;-89
2022/04/16 07:22:05;;;;;;;23.75;16.65;;;;;;;18.38;54.96;101864.28;5051973;28;20036;-89
2022/04/16 07:24:30;;;;;;;20.27;15.20;;;;;;;18.49;54.96;101863.41;5051879;28;20104;-89
2022/04/16 07:26:55;;;;;;;23.33;16.95;;;;;;;18.61;54.66;101862.44;5051363;28;20030;-89
2022/04/16 07:29:22;;;;;;;24.83;17.33;;;;;;;18.48;54.93;101867.03;5051598;28;20029;-89
2022/04/16 07:31:48;;;;;;;26.02;17.55;;;;;;;18.59;54.40;101867.03;5052354;28;20037;-89
2022/04/16 07:34:14;;;;;;;23.10;16.45;;;;;;;18.69;54.45;101864.50;5058748;28;20114;-89
2022/04/16 07:36:43;;;;;;;20.45;15.77;;;;;;;18.84;54.09;101867.81;5055657;28;20036;-89
2022/04/16 07:39:09;;;;;;;30.23;18.67;;;;;;;19.02;53.44;101870.81;5055313;28;20028;-88
2022/04/16 07:41:34;;;;;;;27.23;19.10;;;;;;;19.24;53.15;101871.72;5055438;28;20070;-89
2022/04/16 07:44:03;;;;;;;27.38;17.52;;;;;;;19.28;52.39;101860.69;5055257;28;20025;-88
2022/04/16 07:46:29;;;;;;;27.33;18.90;;;;;;;19.36;52.47;101874.22;5055399;28;20083;-89
2022/04/16 07:48:57;;;;;;;32.53;20.95;;;;;;;19.25;52.42;101852.94;5055473;28;20108;-89
2022/04/16 07:51:22;;;;;;;26.92;18.88;;;;;;;19.48;52.19;101860.88;5055509;28;20017;-88
2022/04/16 07:53:48;;;;;;;28.67;17.85;;;;;;;19.51;52.24;101871.25;5055180;28;20087;-89
2022/04/16 07:56:13;;;;;;;31.38;21.05;;;;;;;19.57;52.27;101868.13;5055423;28;20028;-88
2022/04/16 07:58:38;;;;;;;35.10;22.38;;;;;;;19.73;51.33;101868.53;5054941;28;20104;-89
2022/04/16 08:01:04;;;;;;;28.35;20.55;;;;;;;19.73;51.50;101851.72;5055047;28;20021;-89
2022/04/16 08:03:29;;;;;;;32.10;21.70;;;;;;;19.76;51.04;101867.44;5056662;28;20020;-89
2022/04/16 08:05:54;;;;;;;37.63;23.85;;;;;;;19.76;50.62;101865.59;5056112;28;20025;-89
2022/04/16 08:08:19;;;;;;;40.35;25.73;;;;;;;19.79;50.63;101870.69;5054341;28;20037;-89
2022/04/16 08:10:46;;;;;;;35.50;23.35;;;;;;;19.74;50.78;101867.56;5055043;28;20021;-89
2022/04/16 08:13:11;;;;;;;38.03;24.77;;;;;;;19.58;51.08;101861.78;5054885;28;20028;-89
2022/04/16 08:15:37;;;;;;;35.78;24.23;;;;;;;19.62;51.20;101869.41;5054572;28;20029;-90
2022/04/16 08:18:02;;;;;;;37.17;25.17;;;;;;;19.65;51.14;101862.13;5054926;28;20107;-89
2022/04/16 08:20:28;;;;;;;39.50;23.95;;;;;;;19.57;51.20;101876.09;5054677;28;20021;-90
2022/04/16 08:22:54;;;;;;;36.80;25.80;;;;;;;19.67;51.08;101869.03;5053812;28;20612;-89
2022/04/16 08:27:45;;;;;;;36.90;25.55;;;;;;;19.88;50.97;101878.88;5055234;28;20028;-90
2022/04/16 08:30:16;;;;;;;36.58;25.45;;;;;;;19.92;50.97;101881.16;5054417;28;20025;-89
2022/04/16 08:32:42;;;;;;;33.65;23.58;;;;;;;20.02;50.91;101873.22;5056110;28;20027;-89
2022/04/16 08:35:13;;;;;;;33.88;22.60;;;;;;;20.15;50.83;101876.53;5070231;28;20035;-90
2022/04/16 08:37:40;;;;;;;36.50;22.27;;;;;;;20.30;50.47;101879.72;5076814;28;20093;-88
2022/04/16 08:40:06;;;;;;;37.83;25.40;;;;;;;20.24;50.47;101880.25;5066950;28;20021;-90
2022/04/16 08:42:33;;;;;;;44.17;27.25;;;;;;;20.28;50.59;101878.16;5054877;28;20483;-89
2022/04/16 08:45:00;;;;;;;37.67;27.08;;;;;;;20.19;50.83;101880.63;5053796;28;20021;-90
2022/04/16 08:47:25;;;;;;;42.90;28.23;;;;;;;20.21;50.21;101875.19;5054247;28;20048;-90
2022/04/16 08:49:50;;;;;;;44.42;27.63;;;;;;;20.23;50.33;101872.38;5054537;28;20475;-88
2022/04/16 08:52:17;;;;;;;32.15;23.63;;;;;;;20.42;50.36;101891.16;5054072;28;20493;-90
2022/04/16 08:54:43;;;;;;;41.33;25.85;;;;;;;20.63;50.30;101884.97;5053951;28;20029;-89
2022/04/16 08:57:08;;;;;;;42.40;26.83;;;;;;;21.19;49.93;101881.78;5054203;28;20099;-89
2022/04/16 08:59:34;;;;;;;38.55;27.58;;;;;;;21.57;48.05;101883.66;5053993;28;20025;-89
2022/04/16 09:02:00;;;;;;;33.58;23.27;;;;;;;22.36;47.42;101887.13;5055355;28;20479;-89
2022/04/16 09:04:32;;;;;;;34.25;25.40;;;;;;;22.97;46.17;101886.56;5057305;28;20116;-90
2022/04/16 09:06:59;;;;;;;38.55;25.73;;;;;;;23.04;44.82;101883.31;5055800;28;20049;-89
2022/04/16 09:09:25;;;;;;;36.17;25.33;;;;;;;23.25;44.61;101891.09;5053566;28;20025;-89
2022/04/16 09:11:51;;;;;;;33.95;24.00;;;;;;;23.49;44.23;101887.81;5053295;28;20365;-89
2022/04/16 09:14:16;;;;;;;34.55;24.23;;;;;;;23.67;44.23;101890.47;5053679;28;20032;-90
2022/04/16 09:16:42;;;;;;;33.65;22.85;;;;;;;23.75;43.47;101877.97;5053543;28;20032;-90
2022/04/16 09:19:17;;;;;;;39.05;24.00;;;;;;;24.04;43.27;101879.56;5053492;28;20029;-90
2022/04/16 09:21:43;;;;;;;36.25;24.92;;;;;;;24.41;42.04;101882.97;5053477;28;20150;-89
2022/04/16 09:24:10;;;;;;;35.97;24.33;;;;;;;25.04;40.93;101887.13;5053844;28;20537;-90
2022/04/16 09:26:38;;;;;;;33.22;23.63;;;;;;;25.05;40.94;101883.47;5054114;28;20481;-90
2022/04/16 09:29:08;;;;;;;31.67;23.88;;;;;;;25.31;40.57;101899.50;5052936;28;20033;-90
2022/04/16 09:31:35;;;;;;;28.17;20.52;;;;;;;25.93;40.54;101891.00;5053233;28;20100;-89
2022/04/16 09:34:01;;;;;;;33.83;22.88;;;;;;;26.36;38.92;101875.44;5053121;28;20029;-90
2022/04/16 09:36:27;;;;;;;30.65;19.65;;;;;;;26.10;39.56;101889.97;5053147;28;20497;-88
2022/04/16 09:39:22;;;;;;;29.08;21.40;;;;;;;25.98;39.45;101885.13;5052718;28;20091;-90
2022/04/16 09:41:51;;;;;;;34.95;24.52;;;;;;;26.23;39.30;101884.06;5053088;28;20040;-90
2022/04/16 09:44:19;;;;;;;24.10;18.23;;;;;;;26.32;39.54;101884.88;5053126;28;20025;-89
2022/04/16 09:46:46;;;;;;;26.23;19.23;;;;;;;26.90;38.48;101880.16;5052907;28;20024;-89
2022/04/16 09:49:12;;;;;;;27.38;19.20;;;;;;;27.30;38.15;101880.94;5052731;28;20021;-90
2022/04/16 09:51:41;;;;;;;22.23;16.05;;;;;;;28.01;37.90;101884.28;5052937;28;20108;-90
2022/04/16 09:54:06;;;;;;;26.45;19.48;;;;;;;28.40;35.90;101872.38;5051467;28;20360;-90
2022/04/16 09:56:34;;;;;;;27.17;19.95;;;;;;;28.69;34.94;101876.09;5052623;28;20047;-90
2022/04/16 09:59:05;;;;;;;26.80;20.73;;;;;;;29.00;34.62;101875.84;5053060;28;20095;-89
2022/04/16 10:01:32;;;;;;;32.40;22.60;;;;;;;28.87;34.26;101879.25;5052985;28;20029;-89
2022/04/16 10:03:58;;;;;;;31.52;22.13;;;;;;;28.66;34.57;101874.63;5054145;28;20033;-90
2022/04/16 10:06:24;;;;;;;26.08;21.67;;;;;;;28.75;34.36;101869.94;5054923;28;20009;-89
2022/04/16 10:08:50;;;;;;;24.40;20.08;;;;;;;29.07;33.91;101878.66;5052761;28;20025;-89
2022/04/16 10:11:21;;;;;;;28.23;21.52;;;;;;;28.58;34.40;101877.44;5052197;28;20104;-89
2022/04/16 10:14:05;;;;;;;28.15;20.38;;;;;;;28.72;34.56;101867.63;5052508;28;20383;-90
2022/04/16 10:16:45;;;;;;;23.83;19.38;;;;;;;29.00;34.46;101872.31;5052257;28;20025;-90
2022/04/16 10:19:17;;;;;;;23.85;20.35;;;;;;;29.05;33.81;101870.72;5053456;28;20087;-90
2022/04/16 10:21:43;;;;;;;24.30;19.98;;;;;;;29.15;33.97;101875.00;5052942;28;20068;-89
2022/04/16 10:24:09;;;;;;;26.38;18.95;;;;;;;29.40;33.90;101870.06;5052314;28;20080;-90
2022/04/16 10:26:38;;;;;;;21.15;15.20;;;;;;;29.46;34.57;101867.44;5052481;28;20408;-90
2022/04/16 10:29:04;;;;;;;26.75;19.50;;;;;;;29.35;33.41;101859.81;5052293;28;20037;-90
2022/04/16 10:31:33;;;;;;;27.45;20.30;;;;;;;29.36;32.95;101866.88;5052517;28;20387;-90
2022/04/16 10:34:05;;;;;;;23.50;17.67;;;;;;;29.48;33.08;101869.91;5052126;28;20056;-90
2022/04/16 10:36:37;;;;;;;;;;;;;;;28.93;33.46;101864.16;5052580;28;20475;-90
2022/04/16 10:39:27;;;;;;;26.90;18.92;;;;;;;29.35;33.23;101864.41;5052456;28;19912;-90
2022/04/16 10:41:57;;;;;;;21.70;17.63;;;;;;;29.60;33.16;101859.41;5052463;28;20021;-90
2022/04/16 10:44:23;;;;;;;20.05;16.83;;;;;;;29.70;33.02;101865.34;5052614;28;20392;-90
2022/04/16 10:46:50;;;;;;;22.77;18.55;;;;;;;29.69;32.78;101866.34;5052968;28;20021;-89
2022/04/16 10:49:17;;;;;;;23.60;17.70;;;;;;;29.70;32.68;101867.19;5052590;28;20029;-90
2022/04/16 10:51:43;;;;;;;23.33;16.23;;;;;;;29.98;32.41;101857.25;5052476;28;20044;-90
2022/04/16 10:54:24;;;;;;;22.63;17.23;;;;;;;29.92;32.97;101858.03;5052223;28;20360;-90
2022/04/16 10:56:54;;;;;;;20.92;17.48;;;;;;;29.94;32.65;101853.25;5052618;28;20104;-90
2022/04/16 10:59:35;;;;;;;19.92;14.85;;;;;;;30.10;32.40;101862.13;5052814;28;20100;-90
2022/04/16 11:02:01;;;;;;;21.35;17.17;;;;;;;30.27;32.23;101857.19;5052964;28;20032;-90
2022/04/16 11:04:27;;;;;;;23.70;19.00;;;;;;;30.04;32.15;101853.75;5054385;28;20024;-90
2022/04/16 11:06:57;;;;;;;21.42;17.42;;;;;;;30.25;32.41;101852.84;5054280;28;20029;-89
2022/04/16 11:09:23;;;;;;;20.17;15.73;;;;;;;30.54;32.67;101837.34;5056437;28;20479;-89
2022/04/16 11:11:51;;;;;;;16.77;14.45;;;;;;;30.90;32.06;101840.84;5056089;28;20110;-90
2022/04/16 11:14:18;;;;;;;22.83;16.63;;;;;;;30.92;31.18;101855.03;5056037;28;20029;-90
2022/04/16 11:16:44;;;;;;;17.13;13.75;;;;;;;30.81;30.62;101835.59;5056305;28;20027;-90
2022/04/16 11:19:15;;;;;;;20.55;16.33;;;;;;;30.27;31.28;101846.38;5054844;28;20167;-90
2022/04/16 11:21:42;;;;;;;16.80;12.80;;;;;;;30.41;31.88;101832.72;5054340;28;20021;-91
2022/04/16 11:24:08;;;;;;;19.08;15.40;;;;;;;30.28;33.02;101816.38;5055758;28;20506;-90